Time;durP1;ratioP1;P1;durP2;ratioP2;P2;SDS_P1;SDS_P2;PMS_P1;PMS_P2;Temp;Humidity;BMP_temperature;BMP_pressure;BME280_temperature;BME280_humidity;BME280_pressure;Samples;Min_cycle;Max_cycle;Signal;HPM_P1;HPM_P2
2022/05/13 00:02:24;;;;;;;9.18;3.15;;;12.00;99.90;;;;;;5027505;28;20116;-79
2022/05/13 00:04:50;;;;;;;10.00;3.60;;;11.70;99.90;;;;;;5018956;28;20485;-80
2022/05/13 00:07:16;;;;;;;10.25;2.45;;;12.00;99.90;;;;;;5003393;28;20052;-80
2022/05/13 00:09:58;;;;;;;7.70;3.30;;;12.00;99.90;;;;;;5020462;28;20120;-79
2022/05/13 00:12:26;;;;;;;5.00;2.28;;;11.50;99.90;;;;;;5028899;28;20480;-80
2022/05/13 00:14:52;;;;;;;8.68;2.55;;;12.00;99.90;;;;;;5039524;28;20041;-77
2022/05/13 00:17:19;;;;;;;9.52;2.50;;;11.80;99.90;;;;;;5007203;28;20484;-77
2022/05/13 00:19:45;;;;;;;13.10;2.88;;;13.40;99.90;;;;;;5005875;28;20052;-80
2022/05/13 00:22:12;;;;;;;6.65;2.13;;;12.00;99.90;;;;;;5039781;28;20106;-80
2022/05/13 00:24:38;;;;;;;8.63;2.72;;;13.60;99.90;;;;;;5005293;28;20385;-79
2022/05/13 00:27:05;;;;;;;8.32;2.55;;;12.00;99.90;;;;;;5002874;28;20184;-80
2022/05/13 00:29:30;;;;;;;10.13;3.17;;;11.90;99.90;;;;;;5018736;28;20488;-78
2022/05/13 00:31:56;;;;;;;11.05;2.47;;;12.00;99.90;;;;;;5003193;28;20068;-79
2022/05/13 00:34:22;;;;;;;10.55;3.00;;;12.10;99.90;;;;;;5009081;28;20045;-79
2022/05/13 00:36:48;;;;;;;7.72;2.33;;;12.10;99.90;;;;;;5002801;28;20042;-79
2022/05/13 00:39:14;;;;;;;5.60;2.10;;;12.00;99.90;;;;;;5020487;28;20051;-80
2022/05/13 00:41:40;;;;;;;8.20;1.90;;;11.60;99.90;;;;;;5013643;28;20086;-80
2022/05/13 00:44:07;;;;;;;6.57;2.17;;;13.30;99.90;;;;;;5018502;28;20080;-78
2022/05/13 00:46:32;;;;;;;4.32;1.80;;;12.00;99.90;;;;;;5001829;28;20042;-80
2022/05/13 00:49:01;;;;;;;10.25;2.20;;;12.10;99.90;;;;;;5019536;28;20038;-79
2022/05/13 00:51:31;;;;;;;9.05;2.00;;;12.10;99.90;;;;;;5022707;28;20097;-80
2022/05/13 00:53:58;;;;;;;10.93;2.22;;;12.10;99.90;;;;;;5002680;28;20097;-78
2022/05/13 00:56:24;;;;;;;14.75;3.47;;;12.10;99.90;;;;;;5018886;28;20045;-79
2022/05/13 00:58:56;;;;;;;8.40;2.25;;;12.10;99.90;;;;;;5036601;28;20517;-80
2022/05/13 01:01:22;;;;;;;15.50;3.47;;;13.00;99.90;;;;;;5022319;28;20402;-79
2022/05/13 01:03:49;;;;;;;10.73;2.85;;;13.10;99.90;;;;;;5021485;28;20037;-80
2022/05/13 01:06:20;;;;;;;10.73;2.65;;;12.10;99.90;;;;;;5001027;28;20102;-79
2022/05/13 01:08:47;;;;;;;13.60;2.63;;;12.10;99.90;;;;;;5001773;28;20120;-79
2022/05/13 01:11:17;;;;;;;11.85;2.70;;;12.10;99.90;;;;;;5021634;28;20048;-79
2022/05/13 01:13:51;;;;;;;9.18;2.83;;;12.10;99.90;;;;;;5039093;28;20068;-79
2022/05/13 01:16:17;;;;;;;12.33;2.97;;;12.10;99.90;;;;;;5035074;28;20045;-80
2022/05/13 01:18:44;;;;;;;6.85;2.28;;;12.10;99.90;;;;;;5001688;28;20397;-80
2022/05/13 01:21:13;;;;;;;8.70;2.40;;;12.10;99.90;;;;;;5020301;28;20045;-79
2022/05/13 01:23:43;;;;;;;6.38;2.38;;;12.00;99.90;;;;;;5005527;28;20069;-79
2022/05/13 01:26:12;;;;;;;10.02;2.55;;;12.10;99.90;;;;;;5018243;28;20088;-79
2022/05/13 01:28:41;;;;;;;11.57;2.97;;;13.10;99.90;;;;;;5017629;28;20099;-80
2022/05/13 01:31:13;;;;;;;7.47;2.42;;;12.80;99.90;;;;;;5044459;28;20647;-79
2022/05/13 01:33:41;;;;;;;12.80;2.40;;;12.00;99.90;;;;;;5046502;28;20053;-80
2022/05/13 01:36:09;;;;;;;10.98;3.13;;;12.00;99.90;;;;;;5018133;28;20470;-79
2022/05/13 01:38:37;;;;;;;12.10;2.70;;;12.00;99.90;;;;;;5008200;28;20131;-80
2022/05/13 01:41:05;;;;;;;11.35;2.60;;;12.10;99.90;;;;;;5019091;28;20060;-78
2022/05/13 01:43:32;;;;;;;11.65;2.28;;;12.00;99.90;;;;;;5001871;28;20052;-79
2022/05/13 01:45:59;;;;;;;11.23;2.80;;;12.00;99.90;;;;;;5002416;28;20052;-79
2022/05/13 01:48:26;;;;;;;7.85;2.38;;;12.00;99.90;;;;;;5020886;28;20544;-79
2022/05/13 01:50:52;;;;;;;6.68;2.13;;;12.00;99.90;;;;;;5041418;28;20048;-78
2022/05/13 01:53:18;;;;;;;14.15;3.28;;;12.00;99.90;;;;;;5005144;28;20041;-80
2022/05/13 01:55:43;;;;;;;11.32;2.65;;;12.90;99.90;;;;;;5021426;28;20057;-77
2022/05/13 01:58:13;;;;;;;10.93;2.92;;;12.00;99.90;;;;;;5007111;28;20057;-80
2022/05/13 02:00:40;;;;;;;12.65;3.25;;;12.00;99.90;;;;;;5050169;28;20496;-78
2022/05/13 02:05:50;;;;;;;9.43;3.70;;;11.70;99.90;;;;;;5039651;28;20056;-80
2022/05/13 02:08:16;;;;;;;10.02;2.63;;;12.00;99.90;;;;;;5046535;28;20041;-79
2022/05/13 02:10:45;;;;;;;8.82;2.75;;;12.00;99.90;;;;;;5011631;28;20124;-79
2022/05/13 02:13:13;;;;;;;13.63;3.25;;;12.00;99.90;;;;;;5038968;28;20053;-79
2022/05/13 02:15:39;;;;;;;16.23;2.67;;;12.00;99.90;;;;;;5021547;28;20520;-79
2022/05/13 02:18:05;;;;;;;11.80;2.78;;;12.00;99.90;;;;;;5021014;28;20041;-79
2022/05/13 02:20:31;;;;;;;17.08;4.25;;;12.00;99.90;;;;;;5008518;28;20064;-80
2022/05/13 02:22:56;;;;;;;14.80;3.53;;;12.10;99.90;;;;;;5023816;28;20480;-79
2022/05/13 02:25:22;;;;;;;8.98;2.97;;;12.10;99.90;;;;;;5024045;28;20500;-79
2022/05/13 02:27:48;;;;;;;9.43;3.47;;;12.10;99.90;;;;;;5024717;28;20103;-79
2022/05/13 02:30:14;;;;;;;14.43;3.00;;;12.10;99.90;;;;;;5004551;28;20421;-79
2022/05/13 02:32:40;;;;;;;11.38;3.40;;;11.90;99.90;;;;;;5038551;28;20049;-80
2022/05/13 02:35:06;;;;;;;14.70;3.92;;;12.10;99.90;;;;;;5039815;28;20046;-80
2022/05/13 02:37:32;;;;;;;14.88;3.72;;;12.10;99.90;;;;;;5026286;28;20046;-79
2022/05/13 02:39:58;;;;;;;11.88;3.80;;;13.30;99.90;;;;;;5038707;28;20049;-79
2022/05/13 02:42:23;;;;;;;14.20;4.35;;;12.10;99.90;;;;;;5032325;28;20536;-80
2022/05/13 02:44:49;;;;;;;12.02;3.97;;;13.80;99.90;;;;;;5023698;28;20051;-78
2022/05/13 02:47:15;;;;;;;13.95;3.50;;;12.20;99.90;;;;;;5045123;28;20203;-78
2022/05/13 02:49:41;;;;;;;10.88;3.42;;;12.10;99.90;;;;;;5020931;28;20060;-78
2022/05/13 02:52:08;;;;;;;9.95;3.40;;;12.10;99.90;;;;;;5020967;28;20485;-78
2022/05/13 02:54:34;;;;;;;12.52;3.55;;;12.10;99.90;;;;;;5010783;28;20049;-79
2022/05/13 02:57:00;;;;;;;15.27;3.88;;;12.10;99.90;;;;;;5038261;28;20030;-79
2022/05/13 02:59:26;;;;;;;17.55;4.63;;;12.10;99.90;;;;;;5023383;28;20045;-78
2022/05/13 03:01:54;;;;;;;16.95;4.95;;;12.10;99.90;;;;;;5007599;28;20049;-77
2022/05/13 03:04:20;;;;;;;14.70;3.50;;;12.10;99.90;;;;;;5020042;28;20145;-79
2022/05/13 03:06:47;;;;;;;12.88;3.60;;;11.80;99.90;;;;;;5003682;28;20053;-79
2022/05/13 03:09:12;;;;;;;13.48;3.53;;;12.10;99.90;;;;;;5022335;28;20037;-80
2022/05/13 03:11:38;;;;;;;19.40;4.20;;;12.70;99.90;;;;;;5007364;28;20039;-80
2022/05/13 03:14:04;;;;;;;16.40;3.90;;;12.10;99.90;;;;;;5006181;28;20201;-80
2022/05/13 03:16:30;;;;;;;17.58;4.78;;;13.50;99.90;;;;;;5041593;28;20473;-80
2022/05/13 03:18:58;;;;;;;14.68;4.20;;;11.80;99.90;;;;;;5022943;28;20114;-78
2022/05/13 03:21:25;;;;;;;18.45;4.00;;;11.40;99.90;;;;;;5023381;28;20067;-78
2022/05/13 03:23:52;;;;;;;15.07;3.90;;;12.10;99.90;;;;;;5023825;28;20096;-80
2022/05/13 03:26:21;;;;;;;15.70;3.45;;;11.70;99.90;;;;;;5028395;28;20041;-80
2022/05/13 03:28:48;;;;;;;16.85;4.50;;;12.10;99.90;;;;;;5037077;28;20355;-80
2022/05/13 03:31:14;;;;;;;13.57;3.47;;;12.00;99.90;;;;;;5005381;28;20491;-80
2022/05/13 03:33:41;;;;;;;15.27;3.63;;;12.00;99.90;;;;;;5040987;28;20083;-80
2022/05/13 03:36:09;;;;;;;18.60;3.85;;;12.00;99.90;;;;;;5005744;28;20122;-80
2022/05/13 03:38:35;;;;;;;20.25;4.35;;;12.80;99.90;;;;;;5019947;28;20405;-79
2022/05/13 03:41:01;;;;;;;15.95;4.00;;;11.90;99.90;;;;;;5024435;28;20049;-80
2022/05/13 03:43:29;;;;;;;11.95;3.38;;;12.00;99.90;;;;;;5023483;28;20037;-80
2022/05/13 03:45:54;;;;;;;19.75;4.18;;;12.10;99.90;;;;;;5048358;28;20254;-79
2022/05/13 03:48:20;;;;;;;21.67;4.05;;;12.10;99.90;;;;;;5002846;28;20065;-80
2022/05/13 03:50:46;;;;;;;18.83;5.28;;;12.20;99.90;;;;;;5020152;28;20049;-81
2022/05/13 03:53:12;;;;;;;17.38;4.22;;;12.10;99.90;;;;;;5038979;28;20041;-80
2022/05/13 03:55:38;;;;;;;21.58;5.20;;;12.10;99.90;;;;;;5023245;28;20044;-79
2022/05/13 03:58:04;;;;;;;20.08;3.95;;;12.10;99.90;;;;;;5005469;28;20045;-80
2022/05/13 04:00:31;;;;;;;18.58;3.65;;;12.10;99.90;;;;;;5003532;28;20041;-79
2022/05/13 04:02:58;;;;;;;21.75;4.70;;;13.70;99.90;;;;;;5036052;28;20397;-80
2022/05/13 04:10:53;;;;;;;20.85;5.05;;;12.10;99.90;;;;;;5036728;28;20110;-79
2022/05/13 04:16:06;;;;;;;;;;;12.10;99.90;;;;;;5027104;28;20067;-79
2022/05/13 04:18:37;;;;;;;25.17;4.80;;;12.10;99.90;;;;;;5023265;28;19925;-79
2022/05/13 04:21:04;;;;;;;19.85;4.63;;;12.20;99.90;;;;;;5030660;28;20052;-79
2022/05/13 04:23:35;;;;;;;24.70;4.63;;;12.40;99.90;;;;;;5006860;28;20087;-77
2022/05/13 04:26:01;;;;;;;17.38;4.18;;;12.20;99.90;;;;;;5022257;28;20053;-80
2022/05/13 04:28:27;;;;;;;25.83;5.22;;;12.20;99.90;;;;;;5027860;28;20037;-79
2022/05/13 04:30:53;;;;;;;15.40;4.05;;;12.20;99.90;;;;;;5035327;28;20456;-80
2022/05/13 04:33:19;;;;;;;26.08;5.60;;;12.30;99.90;;;;;;5044993;28;20052;-80
2022/05/13 04:35:45;;;;;;;15.75;3.75;;;12.20;99.90;;;;;;5019879;28;20045;-80
2022/05/13 04:38:10;;;;;;;27.50;4.90;;;12.20;99.90;;;;;;5036844;28;20061;-80
2022/05/13 04:40:37;;;;;;;17.25;3.88;;;12.20;99.90;;;;;;5006553;28;20053;-78
2022/05/13 04:43:03;;;;;;;19.08;4.22;;;12.30;99.90;;;;;;5022408;28;20041;-80
2022/05/13 04:45:30;;;;;;;20.30;5.07;;;12.30;99.90;;;;;;5035776;28;20049;-80
2022/05/13 04:48:15;;;;;;;17.65;4.50;;;13.60;99.90;;;;;;5018702;28;20041;-77
2022/05/13 04:50:41;;;;;;;;;;;12.20;99.90;;;;;;5048115;28;20063;-79
2022/05/13 04:53:08;;;;;;;20.27;3.85;;;12.20;99.90;;;;;;5021151;28;19931;-80
2022/05/13 04:55:35;;;;;;;14.82;4.47;;;12.20;99.90;;;;;;5022270;28;20048;-79
2022/05/13 04:58:02;;;;;;;20.05;3.92;;;12.30;99.90;;;;;;5021314;28;20037;-79
2022/05/13 05:00:28;;;;;;;17.42;3.55;;;12.50;99.90;;;;;;5002992;28;20084;-77
2022/05/13 05:02:54;;;;;;;17.85;4.25;;;12.30;99.90;;;;;;5025090;28;20243;-79
2022/05/13 05:05:19;;;;;;;15.65;3.97;;;12.30;99.90;;;;;;5003072;28;20124;-79
2022/05/13 05:07:46;;;;;;;25.33;3.85;;;12.30;99.90;;;;;;5018588;28;20080;-79
2022/05/13 05:10:11;;;;;;;13.57;2.78;;;12.30;99.90;;;;;;5018977;28;20079;-79
2022/05/13 05:12:38;;;;;;;19.15;4.95;;;12.30;99.90;;;;;;5021807;28;20053;-77
2022/05/13 05:15:05;;;;;;;12.18;2.67;;;12.40;99.90;;;;;;5039492;28;20566;-80
2022/05/13 05:17:31;;;;;;;17.58;2.97;;;12.50;99.90;;;;;;5036281;28;20087;-79
2022/05/13 05:19:56;;;;;;;11.55;2.55;;;13.00;99.90;;;;;;5035540;28;20049;-78
2022/05/13 05:22:22;;;;;;;13.57;2.75;;;12.50;99.90;;;;;;5027032;28;20377;-77
2022/05/13 05:24:48;;;;;;;10.95;2.45;;;14.00;99.90;;;;;;5037788;28;20041;-79
2022/05/13 05:27:13;;;;;;;12.65;1.92;;;12.50;99.90;;;;;;5040051;28;20077;-78
2022/05/13 05:29:39;;;;;;;12.57;3.03;;;12.60;99.90;;;;;;5043929;28;20043;-79
2022/05/13 05:32:05;;;;;;;10.23;1.88;;;12.60;99.90;;;;;;5025410;28;20067;-80
2022/05/13 05:34:31;;;;;;;11.60;2.17;;;12.60;99.90;;;;;;5022099;28;20060;-80
2022/05/13 05:36:57;;;;;;;8.80;1.95;;;12.70;99.90;;;;;;5021758;28;20484;-79
2022/05/13 05:39:23;;;;;;;10.27;2.00;;;12.70;99.90;;;;;;5014125;28;20041;-78
2022/05/13 05:41:48;;;;;;;7.90;1.83;;;12.80;99.90;;;;;;5023462;28;20045;-80
2022/05/13 05:44:14;;;;;;;6.75;2.03;;;12.80;99.90;;;;;;5038880;28;20045;-77
2022/05/13 05:46:39;;;;;;;6.22;1.48;;;12.80;99.90;;;;;;5033729;28;20041;-79
2022/05/13 05:49:05;;;;;;;10.43;1.52;;;12.90;99.90;;;;;;5049545;28;20045;-77
2022/05/13 05:51:31;;;;;;;6.53;1.63;;;13.40;99.90;;;;;;5023045;28;20053;-78
2022/05/13 05:59:25;;;;;;;10.50;1.75;;;12.90;99.90;;;;;;5024074;28;20462;-79
2022/05/13 06:01:51;;;;;;;17.58;2.22;;;14.60;99.90;;;;;;5021526;28;20493;-80
2022/05/13 06:04:17;;;;;;;7.30;1.33;;;12.90;99.90;;;;;;5029874;28;20072;-80
2022/05/13 06:06:43;;;;;;;12.45;2.15;;;14.60;99.90;;;;;;5021837;28;20069;-78
2022/05/13 06:09:09;;;;;;;8.13;1.95;;;12.90;99.90;;;;;;5041608;28;20045;-79
2022/05/13 06:11:37;;;;;;;12.25;2.42;;;13.00;99.90;;;;;;5025081;28;20091;-79
2022/05/13 06:14:05;;;;;;;6.75;2.40;;;13.00;99.90;;;;;;5042590;28;20041;-76
2022/05/13 06:16:31;;;;;;;9.40;1.40;;;13.10;99.90;;;;;;5030760;28;20496;-80
2022/05/13 06:19:00;;;;;;;7.80;1.38;;;13.00;99.90;;;;;;5020930;28;20051;-79
2022/05/13 06:21:26;;;;;;;6.13;1.65;;;13.00;99.90;;;;;;5047511;28;20056;-77
2022/05/13 06:23:54;;;;;;;10.52;1.88;;;14.40;99.90;;;;;;5004073;28;20045;-77
2022/05/13 06:26:21;;;;;;;8.35;1.98;;;13.00;99.90;;;;;;5005323;28;20077;-77
2022/05/13 06:28:47;;;;;;;9.60;1.77;;;13.10;99.90;;;;;;5042932;28;20075;-80
2022/05/13 06:31:13;;;;;;;12.18;2.08;;;13.10;99.90;;;;;;5041604;28;20040;-79
2022/05/13 06:33:39;;;;;;;7.10;1.63;;;13.10;99.90;;;;;;5005207;28;20409;-78
2022/05/13 06:36:05;;;;;;;8.88;1.90;;;13.20;99.90;;;;;;5026938;28;20051;-80
2022/05/13 06:38:31;;;;;;;5.50;1.17;;;13.20;99.90;;;;;;5021549;28;20041;-78
2022/05/13 06:40:57;;;;;;;6.75;1.63;;;14.10;99.90;;;;;;5026952;28;20048;-79
2022/05/13 06:43:23;;;;;;;11.05;2.30;;;14.90;99.90;;;;;;5042097;28;20496;-79
2022/05/13 06:45:49;;;;;;;7.85;2.08;;;13.30;99.90;;;;;;5004464;28;20412;-79
2022/05/13 06:48:15;;;;;;;10.25;1.73;;;13.30;99.90;;;;;;5007830;28;20048;-79
2022/05/13 06:50:46;;;;;;;8.63;1.35;;;13.30;99.90;;;;;;5014373;28;20072;-77
2022/05/13 06:53:12;;;;;;;7.53;1.23;;;14.50;99.90;;;;;;5043961;28;20044;-79
2022/05/13 06:55:39;;;;;;;9.20;1.40;;;13.40;99.90;;;;;;5027886;28;20462;-80
2022/05/13 06:58:05;;;;;;;5.07;1.25;;;13.40;99.90;;;;;;5010931;28;20052;-79
2022/05/13 07:00:33;;;;;;;7.68;1.75;;;13.50;99.90;;;;;;5042720;28;20087;-80
2022/05/13 07:02:59;;;;;;;11.30;1.42;;;13.50;99.90;;;;;;5029010;28;20069;-80
2022/05/13 07:05:24;;;;;;;7.82;1.27;;;14.50;99.90;;;;;;5014031;28;20053;-80
2022/05/13 07:07:50;;;;;;;7.82;2.47;;;13.60;99.90;;;;;;5049143;28;20107;-80
2022/05/13 07:10:16;;;;;;;8.95;1.63;;;13.50;99.90;;;;;;5043217;28;20068;-80
2022/05/13 07:12:42;;;;;;;3.90;0.80;;;13.50;99.90;;;;;;5008232;28;20060;-81
2022/05/13 07:15:11;;;;;;;6.45;1.77;;;13.60;99.90;;;;;;5024635;28;20041;-80
2022/05/13 07:17:38;;;;;;;7.57;1.75;;;13.50;99.90;;;;;;5042415;28;20120;-79
2022/05/13 07:20:04;;;;;;;9.02;1.92;;;13.60;99.90;;;;;;5048710;28;20075;-80
2022/05/13 07:22:30;;;;;;;5.85;1.25;;;13.50;99.90;;;;;;5024582;28;20499;-80
2022/05/13 07:24:56;;;;;;;6.28;1.58;;;13.50;99.90;;;;;;5038330;28;20053;-79
2022/05/13 07:27:22;;;;;;;4.13;1.20;;;13.60;99.90;;;;;;5044193;28;20033;-80
2022/05/13 07:29:47;;;;;;;10.23;1.85;;;13.60;99.90;;;;;;5047128;28;20045;-79
2022/05/13 07:32:13;;;;;;;8.25;1.60;;;13.60;99.90;;;;;;5022699;28;20167;-80
2022/05/13 07:34:39;;;;;;;7.93;1.10;;;13.70;99.90;;;;;;5038376;28;20050;-80
2022/05/13 07:37:04;;;;;;;12.15;1.98;;;13.70;99.90;;;;;;5004582;28;20065;-79
2022/05/13 07:42:14;;;;;;;6.60;1.17;;;13.80;99.90;;;;;;5024321;28;20629;-80
2022/05/13 07:44:40;;;;;;;8.07;1.85;;;13.80;99.90;;;;;;5023238;28;20091;-80
2022/05/13 07:47:08;;;;;;;6.13;1.10;;;13.80;99.90;;;;;;5028360;28;20033;-80
2022/05/13 07:49:34;;;;;;;7.32;1.38;;;13.80;99.90;;;;;;5024191;28;20112;-79
2022/05/13 07:52:00;;;;;;;6.07;1.23;;;13.90;99.90;;;;;;5021169;28;20138;-79
2022/05/13 07:54:26;;;;;;;8.63;1.55;;;14.10;99.90;;;;;;5024690;28;20076;-79
2022/05/13 07:56:52;;;;;;;5.72;1.13;;;14.00;99.90;;;;;;5037566;28;20045;-79
2022/05/13 07:59:19;;;;;;;14.30;2.13;;;14.00;99.90;;;;;;5038984;28;20037;-80
2022/05/13 08:01:45;;;;;;;6.10;1.10;;;14.00;99.90;;;;;;5015674;28;20381;-80
2022/05/13 08:04:12;;;;;;;5.75;1.33;;;13.90;99.90;;;;;;5032400;28;20531;-80
2022/05/13 08:06:38;;;;;;;9.23;1.35;;;13.90;99.90;;;;;;5047422;28;20431;-80
2022/05/13 08:09:04;;;;;;;9.88;1.23;;;14.00;99.90;;;;;;5037897;28;20079;-80
2022/05/13 08:11:29;;;;;;;12.00;1.80;;;13.90;99.90;;;;;;5039888;28;20073;-79
2022/05/13 08:13:56;;;;;;;7.82;1.30;;;13.90;99.90;;;;;;5009457;28;20108;-80
2022/05/13 08:16:25;;;;;;;8.80;2.05;;;14.30;99.90;;;;;;5011553;28;20044;-80
2022/05/13 08:18:52;;;;;;;5.25;1.35;;;14.00;99.90;;;;;;5023420;28;20053;-81
2022/05/13 08:21:18;;;;;;;8.88;1.55;;;14.00;99.90;;;;;;5017645;28;20041;-82
2022/05/13 08:23:44;;;;;;;7.90;0.90;;;14.00;99.90;;;;;;5042012;28;20053;-80
2022/05/13 08:26:11;;;;;;;5.80;1.25;;;14.00;99.90;;;;;;5024222;28;20478;-79
2022/05/13 08:28:38;;;;;;;9.30;1.30;;;14.00;99.90;;;;;;5041341;28;20041;-81
2022/05/13 08:31:05;;;;;;;7.60;1.38;;;14.00;99.90;;;;;;5030161;28;20052;-81
2022/05/13 08:33:31;;;;;;;9.43;1.67;;;14.20;99.90;;;;;;5049301;28;20056;-81
2022/05/13 08:35:59;;;;;;;7.60;1.48;;;14.20;99.90;;;;;;5038447;28;20025;-79
2022/05/13 08:38:30;;;;;;;7.05;1.20;;;14.20;99.90;;;;;;5027408;28;20041;-79
2022/05/13 08:41:08;;;;;;;6.70;1.33;;;14.20;99.90;;;;;;5021334;28;20042;-79
2022/05/13 08:43:37;;;;;;;5.47;1.38;;;14.30;99.90;;;;;;5043173;28;20049;-81
2022/05/13 08:46:27;;;;;;;4.60;1.33;;;14.30;99.90;;;;;;5020860;28;20045;-81
2022/05/13 08:49:26;;;;;;;8.05;1.27;;;14.20;99.90;;;;;;5021414;28;20046;-80
2022/05/13 08:51:52;;;;;;;4.90;0.75;;;14.30;99.90;;;;;;5040799;28;20044;-79
2022/05/13 08:54:21;;;;;;;9.80;1.48;;;15.30;99.90;;;;;;5045238;28;20030;-80
2022/05/13 08:56:54;;;;;;;4.78;1.30;;;14.10;99.90;;;;;;5023686;28;20064;-80
2022/05/13 08:59:28;;;;;;;3.78;1.38;;;14.10;99.90;;;;;;5025897;28;20051;-79
2022/05/13 09:02:00;;;;;;;13.70;1.35;;;14.20;99.90;;;;;;5025159;28;20546;-80
2022/05/13 09:04:42;;;;;;;8.23;1.23;;;14.30;99.90;;;;;;5044760;28;20056;-79
2022/05/13 09:07:18;;;;;;;7.82;1.75;;;14.40;99.90;;;;;;5043381;28;20052;-80
2022/05/13 09:09:50;;;;;;;3.40;1.00;;;14.50;99.90;;;;;;5045340;28;20567;-79
2022/05/13 09:12:29;;;;;;;8.70;1.75;;;14.60;99.90;;;;;;5048286;28;20523;-79
2022/05/13 09:15:03;;;;;;;4.22;0.93;;;14.60;99.90;;;;;;5040284;28;20049;-80
2022/05/13 09:17:37;;;;;;;8.48;1.17;;;14.50;99.90;;;;;;5034316;28;20056;-81
2022/05/13 09:20:18;;;;;;;7.63;1.75;;;14.50;99.90;;;;;;4328715;28;10000675;-80
2022/05/13 09:22:52;;;;;;;3.53;0.90;;;14.60;99.90;;;;;;5032732;28;20076;-73
2022/05/13 09:25:22;;;;;;;2.97;0.63;;;14.70;99.90;;;;;;5007012;28;20654;-78
2022/05/13 09:27:59;;;;;;;6.75;1.48;;;14.70;99.90;;;;;;5026813;28;20049;-80
2022/05/13 09:30:39;;;;;;;4.93;1.30;;;14.90;99.90;;;;;;5027515;28;20420;-79
2022/05/13 09:33:19;;;;;;;6.05;1.05;;;14.70;99.90;;;;;;5040387;28;20044;-76
2022/05/13 09:35:47;;;;;;;5.45;1.10;;;14.70;99.90;;;;;;5050044;28;20049;-83
2022/05/13 09:38:19;;;;;;;6.30;1.80;;;14.00;99.90;;;;;;5031311;28;20032;-80
2022/05/13 09:41:01;;;;;;;6.55;0.88;;;14.60;99.90;;;;;;5033448;28;20049;-80
2022/05/13 09:44:08;;;;;;;3.63;0.93;;;14.60;99.90;;;;;;5042135;28;20523;-79
2022/05/13 09:46:36;;;;;;;3.95;1.02;;;14.70;99.90;;;;;;5000374;28;20065;-78
2022/05/13 09:49:11;;;;;;;2.30;0.73;;;14.60;99.90;;;;;;4984216;28;20077;-79
2022/05/13 09:51:51;;;;;;;5.03;0.63;;;14.80;99.90;;;;;;5007974;28;20136;-80
2022/05/13 09:54:31;;;;;;;6.55;1.27;;;14.90;99.90;;;;;;5040833;28;20041;-78
2022/05/13 09:57:11;;;;;;;3.00;1.02;;;15.10;99.90;;;;;;5049936;28;20119;-80
2022/05/13 09:59:42;;;;;;;4.60;1.05;;;15.00;99.90;;;;;;5021364;28;20413;-80
2022/05/13 10:02:29;;;;;;;13.30;2.22;;;15.00;99.90;;;;;;5026614;28;20034;-80
2022/05/13 10:05:10;;;;;;;6.07;1.33;;;15.00;99.90;;;;;;5049111;28;20049;-78
2022/05/13 10:07:48;;;;;;;5.07;1.35;;;15.10;99.90;;;;;;5051568;28;20388;-78
2022/05/13 10:16:02;;;;;;;7.25;1.60;;;15.40;99.90;;;;;;5010687;28;20042;-79
2022/05/13 10:18:35;;;;;;;4.85;0.93;;;15.40;99.90;;;;;;5028896;28;20073;-79
2022/05/13 10:21:14;;;;;;;5.80;1.65;;;15.50;99.90;;;;;;5003548;28;20057;-80
2022/05/13 10:24:13;;;;;;;7.43;1.35;;;15.70;99.90;;;;;;4991062;28;20046;-79
2022/05/13 10:26:41;;;;;;;6.25;1.45;;;15.70;99.90;;;;;;5005040;28;20493;-80
2022/05/13 10:29:14;;;;;;;9.27;1.48;;;15.60;99.90;;;;;;5000827;28;20046;-79
2022/05/13 10:31:43;;;;;;;8.02;1.73;;;15.60;99.90;;;;;;5007830;28;20052;-78
2022/05/13 10:34:25;;;;;;;8.13;1.55;;;15.40;99.90;;;;;;5023295;28;20120;-80
2022/05/13 10:37:11;;;;;;;8.32;1.70;;;15.40;99.90;;;;;;5001188;28;20087;-79
2022/05/13 10:39:47;;;;;;;7.50;1.20;;;15.30;99.90;;;;;;5006036;28;20042;-79
2022/05/13 10:42:17;;;;;;;6.05;1.08;;;15.80;99.90;;;;;;5021971;28;20052;-79
2022/05/13 10:45:05;;;;;;;3.28;1.02;;;15.30;99.90;;;;;;5004571;28;20089;-79
2022/05/13 10:47:42;;;;;;;6.55;1.38;;;15.60;99.90;;;;;;5000044;28;20046;-79
2022/05/13 10:50:25;;;;;;;6.10;1.13;;;15.70;99.90;;;;;;5001035;28;20056;-79
2022/05/13 10:53:09;;;;;;;4.93;0.95;;;15.70;99.90;;;;;;5002526;28;20177;-80
2022/05/13 10:55:55;;;;;;;7.35;1.13;;;15.80;99.90;;;;;;5011070;28;20054;-79
2022/05/13 10:58:34;;;;;;;3.80;0.77;;;15.70;99.90;;;;;;4999889;28;20047;-80
2022/05/13 11:01:20;;;;;;;6.63;0.88;;;15.70;99.90;;;;;;5001619;28;20042;-78
2022/05/13 11:04:05;;;;;;;4.82;1.20;;;15.70;99.90;;;;;;5027365;28;20082;-77
2022/05/13 11:07:06;;;;;;;4.90;1.25;;;15.60;99.90;;;;;;5002662;28;20088;-77
2022/05/13 11:09:52;;;;;;;4.22;1.48;;;15.60;99.90;;;;;;5002835;28;20445;-79
2022/05/13 11:12:34;;;;;;;8.60;1.08;;;14.40;99.90;;;;;;5000275;28;20506;-77
2022/05/13 11:15:11;;;;;;;5.18;0.85;;;15.30;99.90;;;;;;5023752;28;20042;-78
2022/05/13 11:18:00;;;;;;;8.20;0.93;;;15.30;99.90;;;;;;5033193;28;20048;-78
2022/05/13 11:20:46;;;;;;;4.30;1.00;;;15.20;99.90;;;;;;5022685;28;20049;-80
2022/05/13 11:23:17;;;;;;;4.65;1.20;;;15.30;99.90;;;;;;5008239;28;20051;-80
2022/05/13 11:26:23;;;;;;;6.75;1.23;;;15.30;99.90;;;;;;5028026;28;20045;-78
2022/05/13 11:28:55;;;;;;;6.25;1.17;;;15.40;99.90;;;;;;5029884;28;20048;-78
2022/05/13 11:31:45;;;;;;;3.50;0.90;;;15.40;99.90;;;;;;5043246;28;20051;-79
2022/05/13 11:34:11;;;;;;;6.45;1.75;;;15.40;99.90;;;;;;5039334;28;20045;-78
2022/05/13 11:37:00;;;;;;;3.83;0.63;;;16.10;99.90;;;;;;5039394;28;20052;-76
2022/05/13 11:39:40;;;;;;;2.65;0.90;;;15.70;99.90;;;;;;5026575;28;20405;-78
2022/05/13 11:42:12;;;;;;;4.45;0.80;;;16.10;99.90;;;;;;5021199;28;20489;-79
2022/05/13 11:45:09;;;;;;;3.88;0.65;;;16.20;99.90;;;;;;5022654;28;20176;-79
2022/05/13 11:48:19;;;;;;;3.58;0.93;;;16.30;99.90;;;;;;5032408;28;20508;-79
2022/05/13 11:50:44;;;;;;;4.85;0.73;;;16.30;99.90;;;;;;5006304;28;20069;-75
2022/05/13 11:53:10;;;;;;;4.70;0.80;;;16.20;99.90;;;;;;5027428;28;20150;-79
2022/05/13 11:55:41;;;;;;;7.70;1.08;;;16.30;99.90;;;;;;5042122;28;20528;-80
2022/05/13 11:58:08;;;;;;;4.65;0.45;;;16.50;99.90;;;;;;5030108;28;20078;-81
2022/05/13 12:00:38;;;;;;;6.28;1.40;;;16.70;99.90;;;;;;5009654;28;20157;-79
2022/05/13 12:03:16;;;;;;;4.68;0.70;;;16.60;99.90;;;;;;5032725;28;20051;-76
2022/05/13 12:06:14;;;;;;;2.45;0.77;;;16.70;99.70;;;;;;5011633;28;20164;-79
2022/05/13 12:08:52;;;;;;;6.80;1.00;;;16.70;99.90;;;;;;5001803;28;20053;-81
2022/05/13 12:11:46;;;;;;;8.07;1.48;;;16.70;99.90;;;;;;5024001;28;20505;-81
2022/05/13 12:14:28;;;;;;;2.17;0.70;;;16.60;99.90;;;;;;5017900;28;20057;-79
2022/05/13 12:17:29;;;;;;;3.22;0.65;;;16.50;99.90;;;;;;5002955;28;20421;-79
2022/05/13 12:20:21;;;;;;;6.07;1.70;;;16.60;99.90;;;;;;4999956;28;20042;-80
2022/05/13 12:23:06;;;;;;;4.80;2.10;;;16.50;99.90;;;;;;5017463;28;20101;-79
2022/05/13 12:25:31;;;;;;;11.10;1.05;;;16.60;99.90;;;;;;4998320;28;20050;-80
2022/05/13 12:28:09;;;;;;;6.32;0.90;;;16.70;99.90;;;;;;4998859;28;20068;-81
2022/05/13 12:30:37;;;;;;;8.02;0.93;;;16.80;99.90;;;;;;5003065;28;20096;-79
2022/05/13 12:33:20;;;;;;;3.67;1.17;;;17.10;99.60;;;;;;5000174;28;20046;-79
2022/05/13 12:39:19;;;;;;;5.95;1.67;;;16.70;99.90;;;;;;5005096;28;20061;-79
2022/05/13 12:41:51;;;;;;;5.72;1.80;;;16.60;99.90;;;;;;4991532;28;20069;-79
2022/05/13 12:44:39;;;;;;;6.90;1.13;;;16.40;99.90;;;;;;5014595;28;20037;-80
2022/05/13 12:47:17;;;;;;;6.07;1.13;;;16.30;99.90;;;;;;5013716;28;20156;-79
2022/05/13 12:49:49;;;;;;;5.85;1.30;;;16.30;99.90;;;;;;4999156;28;20092;-79
2022/05/13 12:52:27;;;;;;;6.53;1.60;;;16.50;99.90;;;;;;5014988;28;20046;-80
2022/05/13 12:55:01;;;;;;;11.23;1.90;;;16.60;99.90;;;;;;5005301;28;20058;-80
2022/05/13 12:57:34;;;;;;;9.85;1.88;;;17.10;99.90;;;;;;5001307;28;20046;-79
2022/05/13 13:00:01;;;;;;;5.70;1.13;;;16.70;99.90;;;;;;4998677;28;20058;-80
2022/05/13 13:02:31;;;;;;;3.25;1.17;;;16.80;99.90;;;;;;5001893;28;20133;-80
2022/05/13 13:05:02;;;;;;;8.50;1.90;;;17.80;99.90;;;;;;4998336;28;20049;-80
2022/05/13 13:07:30;;;;;;;5.68;1.58;;;16.90;99.90;;;;;;5024745;28;20049;-79
2022/05/13 13:09:57;;;;;;;11.73;1.85;;;17.00;99.90;;;;;;4999281;28;20050;-78
2022/05/13 13:12:40;;;;;;;6.93;1.23;;;17.10;99.90;;;;;;5006904;28;20046;-77
2022/05/13 13:15:12;;;;;;;8.07;1.58;;;17.90;99.90;;;;;;5026132;28;20041;-79
2022/05/13 13:17:46;;;;;;;7.93;1.38;;;17.10;99.90;;;;;;5024129;28;20056;-79
2022/05/13 13:20:16;;;;;;;5.38;1.33;;;17.40;99.90;;;;;;5018339;28;20045;-78
2022/05/13 13:22:46;;;;;;;13.45;1.58;;;16.90;99.50;;;;;;5011538;28;20045;-76
2022/05/13 13:25:36;;;;;;;7.20;0.95;;;16.00;98.80;;;;;;5016421;28;20041;-79
2022/05/13 13:28:05;;;;;;;5.72;1.17;;;17.10;98.90;;;;;;5019667;28;20049;-76
2022/05/13 13:30:32;;;;;;;8.50;1.50;;;17.10;99.10;;;;;;5041202;28;20046;-78